createdAt,value
2018-04-23T00:02:09.372Z,61.00
2018-04-23T00:04:37.469Z,62.10
2018-04-23T00:07:05.629Z,61.10
2018-04-23T00:09:33.720Z,60.20
2018-04-23T00:12:01.811Z,60.60
2018-04-23T00:14:29.892Z,60.80
2018-04-23T00:16:58.005Z,61.50
2018-04-23T00:19:26.104Z,61.50
2018-04-23T00:21:54.193Z,62.00
2018-04-23T00:24:22.286Z,62.20
2018-04-23T00:26:50.396Z,62.80
2018-04-23T00:29:19.236Z,64.50
2018-04-23T00:31:47.326Z,64.40
2018-04-23T00:34:15.423Z,65.10
2018-04-23T00:36:43.515Z,64.70
2018-04-23T00:39:11.614Z,65.10
2018-04-23T00:41:39.720Z,65.70
2018-04-23T00:44:08.559Z,68.00
2018-04-23T00:46:36.664Z,68.10
2018-04-23T00:49:04.754Z,68.40
2018-04-23T00:51:32.871Z,67.70
2018-04-23T00:54:01.793Z,68.80
2018-04-23T00:56:29.893Z,68.60
2018-04-23T00:58:58.036Z,69.30
2018-04-23T01:01:26.142Z,68.70
2018-04-23T01:03:55.000Z,69.20
2018-04-23T01:06:23.096Z,69.10
2018-04-23T01:08:51.199Z,69.30
2018-04-23T01:11:19.393Z,69.70
2018-04-23T01:13:48.254Z,69.60
2018-04-23T01:16:16.370Z,69.60
2018-04-23T01:18:44.512Z,69.60
2018-04-23T01:21:12.601Z,70.00
2018-04-23T01:23:40.704Z,69.00
2018-04-23T01:26:08.847Z,67.70
2018-04-23T01:28:36.996Z,67.10
2018-04-23T01:31:05.849Z,67.70
2018-04-23T01:33:33.926Z,67.70
2018-04-23T01:36:02.013Z,66.50
2018-04-23T01:38:30.123Z,66.30
2018-04-23T01:40:58.233Z,66.30
2018-04-23T01:43:26.325Z,65.20
2018-04-23T01:45:54.411Z,65.90
2018-04-23T06:42:35.211Z,61.40
2018-04-23T06:45:03.317Z,61.80
2018-04-23T06:47:31.402Z,61.70
2018-04-23T06:49:59.503Z,61.80
2018-04-23T06:52:27.595Z,61.30
2018-04-23T06:54:55.704Z,60.80
2018-04-23T06:57:24.550Z,57.00
2018-04-23T06:59:52.630Z,56.80
2018-04-23T07:02:20.695Z,56.30
2018-04-23T07:04:48.779Z,55.60
2018-04-23T07:07:16.851Z,55.50
2018-04-23T07:09:44.967Z,55.10
2018-04-23T07:12:13.085Z,55.40
2018-04-23T07:14:41.192Z,54.70
2018-04-23T07:17:10.086Z,52.90
2018-04-23T07:19:39.022Z,51.90
2018-04-23T07:22:07.097Z,51.70
2018-04-23T07:24:35.214Z,51.00
2018-04-23T07:27:03.296Z,51.00
2018-04-23T07:29:31.366Z,52.70
2018-04-23T07:31:59.471Z,54.80
2018-04-23T07:34:27.547Z,56.00
2018-04-23T07:36:55.649Z,56.70
2018-04-23T07:39:23.741Z,57.90
2018-04-23T07:41:51.907Z,58.90
2018-04-23T07:44:20.806Z,59.80
2018-04-23T07:46:48.889Z,59.30
2018-04-23T07:49:16.991Z,60.00
2018-04-23T07:51:45.097Z,59.40
2018-04-23T07:54:13.228Z,59.50
2018-04-23T07:56:41.265Z,60.80
2018-04-23T07:59:09.371Z,61.90
2018-04-23T08:01:37.436Z,62.30
2018-04-23T08:04:05.556Z,63.00
2018-04-23T08:06:33.711Z,62.60
2018-04-23T08:09:01.757Z,64.00
2018-04-23T08:11:29.834Z,65.20
2018-04-23T08:13:57.948Z,64.80
2018-04-23T08:16:26.031Z,65.80
2018-04-23T08:18:54.128Z,67.50
2018-04-23T08:21:23.060Z,68.40
2018-04-23T08:23:51.927Z,70.30
2018-04-23T08:26:20.012Z,69.70
2018-04-23T08:28:49.663Z,71.60
2018-04-23T08:31:18.566Z,72.40
2018-04-23T08:33:46.698Z,72.40
2018-04-23T08:36:14.772Z,81.20
2018-04-23T08:38:42.872Z,87.40
2018-04-23T08:41:10.969Z,94.10
2018-04-23T08:43:39.070Z,94.80
2018-04-23T08:46:07.237Z,96.20
2018-04-23T08:48:35.390Z,95.10
2018-04-23T08:51:03.504Z,97.20
2018-04-23T08:53:31.637Z,98.50
2018-04-23T08:56:00.524Z,98.70
2018-04-23T08:58:28.622Z,98.60
2018-04-23T09:00:56.756Z,98.80
2018-04-23T09:03:24.871Z,98.60
2018-04-23T09:05:52.973Z,99.50
2018-04-23T09:08:21.838Z,98.20
2018-04-23T09:10:49.946Z,98.20
2018-04-23T09:13:18.029Z,98.00
2018-04-23T09:15:46.160Z,98.20
2018-04-23T09:18:14.266Z,97.70
2018-04-23T09:20:42.388Z,97.60
2018-04-23T09:23:10.496Z,98.70
2018-04-23T09:25:39.358Z,94.80
2018-04-23T09:28:07.461Z,94.80
2018-04-23T09:30:35.552Z,95.30
2018-04-23T09:33:04.387Z,94.10
2018-04-23T09:35:32.485Z,94.10
2018-04-23T09:38:00.554Z,94.00
2018-04-23T09:40:28.659Z,93.80
2018-04-23T09:42:56.757Z,91.60
2018-04-23T09:45:24.856Z,92.60
2018-04-23T09:47:52.947Z,91.80
2018-04-23T09:50:21.040Z,91.20
2018-04-23T09:52:49.137Z,91.60
2018-04-23T09:55:18.024Z,88.60
2018-04-23T09:57:46.107Z,88.50
2018-04-23T10:00:14.283Z,88.10
2018-04-23T10:02:42.368Z,87.60
2018-04-23T10:05:11.269Z,90.30
2018-04-23T10:07:39.343Z,90.30
2018-04-23T10:10:07.422Z,90.60
2018-04-23T10:12:35.474Z,91.30
2018-04-23T10:15:03.595Z,91.70
2018-04-23T10:17:31.678Z,91.30
2018-04-23T10:19:59.784Z,91.30
2018-04-23T10:22:27.892Z,93.30
2018-04-23T10:24:56.764Z,93.40
2018-04-23T10:27:24.852Z,93.40
2018-04-23T10:29:52.967Z,94.50
2018-04-23T10:32:21.829Z,93.90
2018-04-23T10:34:49.929Z,93.90
2018-04-23T10:37:18.028Z,94.30
2018-04-23T10:39:46.873Z,94.20
2018-04-23T10:42:14.965Z,94.20
2018-04-23T10:44:43.068Z,93.20
2018-04-23T10:47:11.150Z,92.80
2018-04-23T10:49:39.261Z,92.60
2018-04-23T10:52:07.335Z,92.60
2018-04-23T10:54:35.443Z,90.80
2018-04-23T10:57:04.329Z,91.50
2018-04-23T10:59:32.413Z,91.40
2018-04-23T11:02:00.517Z,91.10
2018-04-23T11:04:29.396Z,89.80
2018-04-23T11:06:57.477Z,89.70
2018-04-23T11:09:25.570Z,85.00
2018-04-23T11:11:53.953Z,85.40
2018-04-23T11:14:22.038Z,83.30
2018-04-23T11:16:50.108Z,80.70
2018-04-23T11:19:18.207Z,83.20
2018-04-23T11:21:46.317Z,80.60
2018-04-23T11:24:15.190Z,81.10
2018-04-23T11:26:43.261Z,80.80
2018-04-23T11:29:11.357Z,80.90
2018-04-23T11:31:39.446Z,78.70
2018-04-23T11:34:07.547Z,79.20
2018-04-23T11:36:35.683Z,78.90
2018-04-23T11:39:03.745Z,79.90
2018-04-23T11:41:32.661Z,79.60
2018-04-23T11:44:00.738Z,79.60
2018-04-23T11:46:28.858Z,80.70
2018-04-23T11:48:56.936Z,83.00
2018-04-23T11:51:25.090Z,84.70
2018-04-23T11:53:53.959Z,91.60
2018-04-23T11:56:22.055Z,91.60
2018-04-23T11:58:50.154Z,91.90
2018-04-23T12:01:19.031Z,92.00
2018-04-23T12:03:47.153Z,91.90
2018-04-23T12:06:15.243Z,93.60
2018-04-23T12:08:43.366Z,93.40
2018-04-23T12:11:11.448Z,94.20
2018-04-23T12:13:39.539Z,94.80
2018-04-23T12:16:07.681Z,95.60
2018-04-23T12:18:36.578Z,96.70
2018-04-23T12:21:05.448Z,95.80
2018-04-23T12:23:33.572Z,95.80
2018-04-23T12:26:01.703Z,95.30
2018-04-23T12:28:29.820Z,96.00
2018-04-23T12:30:58.692Z,97.60
2018-04-23T12:33:26.799Z,97.60
2018-04-23T12:35:54.937Z,97.50
2018-04-23T12:38:23.113Z,98.30
2018-04-23T12:40:51.962Z,99.60
2018-04-23T12:43:20.062Z,99.60
2018-04-23T12:45:48.165Z,99.90
2018-04-23T12:48:17.031Z,99.00
2018-04-23T12:50:45.146Z,99.00
2018-04-23T12:53:13.265Z,99.10
2018-04-23T12:55:41.368Z,97.70
2018-04-23T12:58:09.478Z,96.80
2018-04-23T13:00:37.572Z,97.60
2018-04-23T13:03:05.697Z,97.20
2018-04-23T13:05:33.824Z,97.30
2018-04-23T13:08:01.928Z,97.30
2018-04-23T13:10:30.036Z,97.80
2018-04-23T13:12:58.127Z,97.00
2018-04-23T13:15:26.212Z,96.90
2018-04-23T13:17:54.315Z,96.70
2018-04-23T13:20:22.429Z,97.90
2018-04-23T13:22:50.520Z,95.80
2018-04-23T13:25:18.620Z,97.30
2018-04-23T13:27:46.684Z,94.90
2018-04-23T13:30:14.792Z,91.80
2018-04-23T13:32:42.896Z,92.10
2018-04-23T13:35:11.722Z,90.30
2018-04-23T13:37:39.814Z,90.50
2018-04-23T13:40:07.899Z,82.00
2018-04-23T13:42:35.985Z,79.70
2018-04-23T13:45:04.080Z,80.60
2018-04-23T13:47:32.183Z,82.30
2018-04-23T13:50:00.306Z,84.10
2018-04-23T13:52:29.156Z,85.80
2018-04-23T13:54:57.296Z,85.80
2018-04-23T13:57:26.167Z,78.70
2018-04-23T13:59:54.240Z,78.80
2018-04-23T14:02:22.340Z,77.30
2018-04-23T14:04:50.410Z,73.30
2018-04-23T14:07:18.511Z,70.70
2018-04-23T14:09:46.591Z,69.90
2018-04-23T14:12:14.677Z,68.60
2018-04-23T14:14:42.793Z,69.30
2018-04-23T14:17:11.620Z,66.00
2018-04-23T14:19:39.690Z,65.70
2018-04-23T14:22:07.792Z,66.40
2018-04-23T14:24:35.887Z,66.00
2018-04-23T14:27:03.979Z,71.50
2018-04-23T14:29:32.086Z,73.70
2018-04-23T14:32:00.203Z,77.40
2018-04-23T14:34:29.093Z,79.50
2018-04-23T14:36:57.960Z,80.70
2018-04-23T14:39:26.090Z,80.10
2018-04-23T14:41:55.001Z,80.20
2018-04-23T14:44:23.867Z,80.90
2018-04-23T14:46:51.988Z,79.10
2018-04-23T14:49:20.091Z,81.00
2018-04-23T14:51:48.239Z,81.40
2018-04-23T14:54:16.324Z,81.40
2018-04-23T14:56:44.446Z,81.70
2018-04-23T14:59:12.549Z,81.70
2018-04-23T15:01:40.627Z,80.10
2018-04-23T15:04:08.728Z,80.90
2018-04-23T15:06:36.853Z,82.80
2018-04-23T15:09:05.712Z,83.70
2018-04-23T15:11:33.815Z,83.70
2018-04-23T15:14:01.889Z,82.90
2018-04-23T15:16:29.988Z,84.40
2018-04-23T15:18:58.087Z,85.70
2018-04-23T15:21:26.957Z,86.80
2018-04-23T15:23:55.696Z,86.80
2018-04-23T15:26:23.740Z,86.50
2018-04-23T15:28:51.835Z,87.10
2018-04-23T15:31:19.935Z,87.70
2018-04-23T15:33:48.043Z,87.10
2018-04-23T15:36:16.926Z,88.50
2018-04-23T15:38:45.026Z,88.40
2018-04-23T15:41:13.888Z,89.10
2018-04-23T15:43:42.008Z,88.60
2018-04-23T15:46:10.909Z,89.50
2018-04-23T15:48:39.009Z,89.40
2018-04-23T15:51:07.927Z,89.20
2018-04-23T15:53:36.047Z,89.10
2018-04-23T15:56:04.193Z,88.50
2018-04-23T15:58:33.045Z,88.20
2018-04-23T16:01:01.150Z,88.10
2018-04-23T16:03:29.243Z,88.70
2018-04-23T16:05:57.380Z,87.80
2018-04-23T16:08:25.534Z,87.70
2018-04-23T16:10:54.422Z,87.80
2018-04-23T16:13:23.302Z,87.60
2018-04-23T16:15:51.384Z,87.50
2018-04-23T16:18:19.504Z,79.20
2018-04-23T16:20:48.355Z,79.20
2018-04-23T16:23:16.465Z,79.20
2018-04-23T16:25:44.570Z,79.10
2018-04-23T16:28:13.432Z,78.90
2018-04-23T16:30:41.527Z,78.80
2018-04-23T16:33:09.654Z,79.10
2018-04-23T16:35:38.546Z,79.50
2018-04-23T16:38:06.656Z,79.40
2018-04-23T16:40:34.768Z,79.70
2018-04-23T16:43:02.872Z,79.90
2018-04-23T16:45:30.966Z,80.00
2018-04-23T16:47:59.088Z,79.60
2018-04-23T16:50:27.939Z,80.10
2018-04-23T16:52:56.083Z,79.90
2018-04-23T16:55:24.182Z,80.30
2018-04-23T16:57:52.329Z,80.30
2018-04-23T17:00:21.193Z,81.10
2018-04-23T17:02:49.311Z,81.00
2018-04-23T17:05:17.392Z,80.80
2018-04-23T17:07:45.510Z,80.70
2018-04-23T17:10:14.329Z,81.20
2018-04-23T17:12:42.431Z,81.00
2018-04-23T17:15:10.551Z,81.30
2018-04-23T17:17:38.651Z,81.30
2018-04-23T17:20:07.512Z,80.40
2018-04-23T17:22:35.605Z,80.30
2018-04-23T17:25:03.718Z,80.90
2018-04-23T17:27:32.597Z,80.80
2018-04-23T17:30:00.729Z,80.80
2018-04-23T17:32:28.856Z,81.20
2018-04-23T17:34:56.958Z,81.50
2018-04-23T17:37:25.372Z,81.90
2018-04-23T17:39:54.252Z,82.10
2018-04-23T17:42:22.352Z,82.10
2018-04-23T17:44:51.219Z,83.00
2018-04-23T17:47:19.300Z,82.80
2018-04-23T17:49:47.408Z,82.80
2018-04-23T17:52:15.503Z,82.70
2018-04-23T17:54:43.661Z,82.50
2018-04-23T17:57:11.768Z,83.20
2018-04-23T17:59:39.866Z,83.30
2018-04-23T18:02:08.708Z,83.00
2018-04-23T18:04:36.804Z,83.00
2018-04-23T18:07:04.889Z,83.30
2018-04-23T18:09:32.988Z,83.80
2018-04-23T18:12:01.130Z,84.10
2018-04-23T18:14:29.240Z,84.40
2018-04-23T18:16:57.328Z,84.60
2018-04-23T18:19:25.742Z,84.30
2018-04-23T18:21:53.828Z,84.90
2018-04-23T18:24:21.942Z,85.10
2018-04-23T18:26:50.846Z,85.80
2018-04-23T18:29:19.735Z,86.20
2018-04-23T18:31:47.860Z,86.00
2018-04-23T18:34:15.985Z,86.40
2018-04-23T18:36:44.084Z,87.30
2018-04-23T18:39:12.186Z,87.50
2018-04-23T18:41:40.307Z,88.20
2018-04-23T18:44:08.414Z,88.60
2018-04-23T18:46:36.575Z,88.70
2018-04-23T18:49:04.764Z,89.70
2018-04-23T18:51:32.860Z,90.40
2018-04-23T18:54:00.982Z,90.90
2018-04-23T18:56:29.093Z,90.90
2018-04-23T18:58:57.988Z,91.40
2018-04-23T19:01:26.110Z,91.40
2018-04-23T19:03:54.200Z,91.20
2018-04-23T19:06:22.344Z,90.40
2018-04-23T19:08:51.270Z,90.40
2018-04-23T19:11:19.340Z,90.40
2018-04-23T19:13:48.198Z,90.50
2018-04-23T19:16:16.314Z,90.50
2018-04-23T19:18:44.397Z,90.60
2018-04-23T19:21:12.671Z,90.70
2018-04-23T19:23:40.756Z,90.60
2018-04-23T19:26:08.855Z,90.90
2018-04-23T19:28:36.962Z,91.00
2018-04-23T19:31:05.092Z,91.20
2018-04-23T19:33:33.291Z,91.50
2018-04-23T19:36:01.560Z,91.50
2018-04-23T19:38:30.312Z,91.90
2018-04-23T19:40:59.179Z,91.50
2018-04-23T19:43:27.268Z,91.50
2018-04-23T19:45:55.414Z,91.40
2018-04-23T19:48:23.501Z,91.40
2018-04-23T19:50:51.609Z,91.60
2018-04-23T19:53:19.739Z,91.50
2018-04-23T19:55:48.596Z,91.60
2018-04-23T19:58:16.710Z,91.60
2018-04-23T20:00:44.816Z,91.80
2018-04-23T20:03:12.895Z,91.90
2018-04-23T20:05:41.751Z,92.20
2018-04-23T20:08:09.884Z,92.00
2018-04-23T20:10:38.764Z,92.70
2018-04-23T20:13:07.138Z,92.60
2018-04-23T20:15:35.264Z,92.90
2018-04-23T20:18:04.141Z,93.10
2018-04-23T20:20:32.231Z,93.00
2018-04-23T20:23:00.436Z,93.50
2018-04-23T20:25:29.355Z,93.50
2018-04-23T20:27:57.639Z,93.50
2018-04-23T20:30:26.508Z,93.30
2018-04-23T20:32:54.608Z,93.30
2018-04-23T20:35:22.705Z,93.40
2018-04-23T20:37:51.568Z,94.10
2018-04-23T20:40:19.726Z,94.10
2018-04-23T20:42:47.825Z,94.30
2018-04-23T20:45:15.924Z,94.40
2018-04-23T20:47:44.074Z,94.70
2018-04-23T20:50:12.210Z,94.90
2018-04-23T20:52:40.309Z,94.80
2018-04-23T20:55:08.407Z,95.50
2018-04-23T20:57:37.681Z,95.50
2018-04-23T21:00:05.880Z,95.50
2018-04-23T21:02:33.999Z,95.30
2018-04-23T21:05:02.860Z,95.10
2018-04-23T21:07:31.012Z,95.10
2018-04-23T21:09:59.108Z,94.90
2018-04-23T21:12:27.210Z,94.70
2018-04-23T21:14:55.432Z,94.80
2018-04-23T21:17:23.591Z,94.80
2018-04-23T21:19:51.692Z,94.80
2018-04-23T21:22:19.834Z,94.80
2018-04-23T21:24:48.776Z,94.70
2018-04-23T21:27:16.875Z,94.70
2018-04-23T21:29:45.129Z,94.90
2018-04-23T21:32:13.215Z,95.10
2018-04-23T21:34:41.326Z,95.20
2018-04-23T21:37:09.424Z,95.90
2018-04-23T21:39:38.274Z,96.50
2018-04-23T21:42:06.379Z,96.10
2018-04-23T21:44:34.485Z,96.60
2018-04-23T21:47:02.591Z,96.50
2018-04-23T21:49:31.456Z,97.10
2018-04-23T21:51:59.537Z,97.00
2018-04-23T21:54:27.641Z,97.10
2018-04-23T21:56:55.741Z,97.30
2018-04-23T21:59:24.604Z,97.40
2018-04-23T22:01:52.724Z,97.40
2018-04-23T22:04:20.803Z,97.80
2018-04-23T22:06:48.931Z,97.60
2018-04-23T22:09:17.057Z,98.20
2018-04-23T22:11:45.156Z,97.80
2018-04-23T22:14:13.260Z,97.90
2018-04-23T22:16:42.165Z,98.00
2018-04-23T22:19:11.023Z,98.40
2018-04-23T22:21:39.119Z,98.40
2018-04-23T22:24:07.259Z,98.20
2018-04-23T22:26:35.348Z,97.70
2018-04-23T22:29:03.472Z,98.00
2018-04-23T22:31:31.595Z,97.80
2018-04-23T22:34:00.513Z,97.70
2018-04-23T22:36:28.601Z,97.60
2018-04-23T22:38:56.760Z,97.70
2018-04-23T22:41:25.601Z,97.90
2018-04-23T22:43:53.734Z,97.90
2018-04-23T22:46:21.824Z,97.70
2018-04-23T22:48:50.712Z,98.10
2018-04-23T22:51:18.817Z,97.90
2018-04-23T22:53:46.903Z,98.20
2018-04-23T22:56:15.005Z,98.50
2018-04-23T22:58:43.104Z,98.50
2018-04-23T23:01:11.228Z,98.20
2018-04-23T23:03:39.311Z,98.10
2018-04-23T23:06:07.416Z,98.20
2018-04-23T23:08:35.841Z,98.10
2018-04-23T23:11:04.701Z,98.40
2018-04-23T23:13:32.787Z,98.40
2018-04-23T23:16:00.930Z,98.30
2018-04-23T23:18:29.763Z,98.70
2018-04-23T23:20:57.870Z,98.60
2018-04-23T23:23:25.952Z,98.50
2018-04-23T23:25:54.047Z,98.90
2018-04-23T23:28:22.926Z,99.30
2018-04-23T23:30:51.028Z,99.20
2018-04-23T23:33:19.109Z,99.00
2018-04-23T23:35:47.994Z,99.50
2018-04-23T23:38:16.118Z,99.50
2018-04-23T23:40:44.196Z,99.50
2018-04-23T23:43:13.059Z,99.90
2018-04-23T23:45:41.167Z,99.80
2018-04-23T23:48:09.269Z,99.90
2018-04-23T23:50:38.132Z,99.90
2018-04-23T23:53:06.279Z,99.90
2018-04-23T23:55:34.427Z,99.90
2018-04-23T23:58:02.522Z,99.90
